createdAt,value
2018-11-04T00:01:02.209Z,1017.5
2018-11-04T00:02:04.234Z,1017.5
2018-11-04T00:03:06.246Z,1017.5
2018-11-04T00:04:08.260Z,1017.5
2018-11-04T00:05:10.568Z,1017.5
2018-11-04T00:06:12.580Z,1017.5
2018-11-04T00:07:15.473Z,1017.5
2018-11-04T00:08:17.487Z,1017.4
2018-11-04T00:09:19.509Z,1017.4
2018-11-04T00:10:21.529Z,1017.4
2018-11-04T00:11:23.821Z,1017.3
2018-11-04T00:12:26.223Z,1017.3
2018-11-04T00:13:28.245Z,1017.3
2018-11-04T00:14:30.252Z,1017.3
2018-11-04T00:15:32.278Z,1017.3
2018-11-04T00:16:34.296Z,1017.3
2018-11-04T00:17:36.315Z,1017.3
2018-11-04T00:18:38.327Z,1017.3
2018-11-04T00:19:40.347Z,1017.3
2018-11-04T00:20:42.359Z,1017.2
2018-11-04T00:21:44.372Z,1017.2
2018-11-04T00:22:46.400Z,1017.2
2018-11-04T00:23:48.408Z,1017.2
2018-11-04T00:24:50.416Z,1017.1
2018-11-04T00:25:52.439Z,1017.1
2018-11-04T00:26:54.781Z,1017.2
2018-11-04T00:27:56.758Z,1017.1
2018-11-04T00:28:58.775Z,1017.1
2018-11-04T00:30:00.987Z,1017.1
2018-11-04T00:31:03.093Z,1017.1
2018-11-04T00:32:05.123Z,1017.1
2018-11-04T00:33:07.720Z,1017.1
2018-11-04T00:34:09.732Z,1017.1
2018-11-04T00:35:11.755Z,1017.1
2018-11-04T00:36:13.769Z,1017.1
2018-11-04T00:37:15.785Z,1017.1
2018-11-04T00:38:17.806Z,1017
2018-11-04T00:39:19.816Z,1017.1
2018-11-04T00:40:21.835Z,1017
2018-11-04T00:41:23.859Z,1017
2018-11-04T00:42:25.881Z,1017
2018-11-04T00:43:27.892Z,1017
2018-11-04T00:44:29.911Z,1017.1
2018-11-04T00:45:31.955Z,1017.1
2018-11-04T00:46:33.942Z,1017
2018-11-04T00:47:35.962Z,1017.1
2018-11-04T00:48:37.987Z,1017
2018-11-04T00:49:40.004Z,1017
2018-11-04T00:50:42.029Z,1017
2018-11-04T00:51:44.423Z,1017
2018-11-04T00:52:46.447Z,1017
2018-11-04T00:53:48.456Z,1017
2018-11-04T00:54:50.466Z,1016.9
2018-11-04T00:55:52.502Z,1016.9
2018-11-04T00:56:54.800Z,1016.9
2018-11-04T00:57:56.817Z,1016.8
2018-11-04T00:58:58.838Z,1016.8
2018-11-04T01:00:00.855Z,1016.8
2018-11-04T01:01:02.865Z,1016.8
2018-11-04T01:02:04.887Z,1016.8
2018-11-04T01:03:06.902Z,1016.8
2018-11-04T01:04:08.910Z,1016.8
2018-11-04T01:05:10.932Z,1016.7
2018-11-04T01:06:12.948Z,1016.7
2018-11-04T01:07:14.962Z,1016.8
2018-11-04T01:08:16.984Z,1016.8
2018-11-04T01:09:19.060Z,1016.8
2018-11-04T01:10:21.580Z,1016.7
2018-11-04T01:11:23.603Z,1016.7
2018-11-04T01:12:25.611Z,1016.7
2018-11-04T01:13:27.627Z,1016.6
2018-11-04T01:14:29.645Z,1016.7
2018-11-04T01:15:31.667Z,1016.6
2018-11-04T01:16:33.678Z,1016.6
2018-11-04T01:17:35.701Z,1016.6
2018-11-04T01:18:37.712Z,1016.6
2018-11-04T01:19:40.107Z,1016.6
2018-11-04T01:20:42.133Z,1016.5
2018-11-04T01:21:44.429Z,1016.6
2018-11-04T01:22:46.830Z,1016.6
2018-11-04T01:23:48.845Z,1016.5
2018-11-04T01:24:50.864Z,1016.5
2018-11-04T01:25:52.873Z,1016.5
2018-11-04T01:26:54.884Z,1016.5
2018-11-04T01:27:56.893Z,1016.5
2018-11-04T01:28:58.919Z,1016.5
2018-11-04T01:30:01.336Z,1016.5
2018-11-04T01:31:04.075Z,1016.5
2018-11-04T01:32:06.098Z,1016.5
2018-11-04T01:33:08.400Z,1016.4
2018-11-04T01:34:10.416Z,1016.4
2018-11-04T01:35:12.437Z,1016.4
2018-11-04T01:36:14.449Z,1016.3
2018-11-04T01:37:16.467Z,1016.3
2018-11-04T01:38:18.493Z,1016.3
2018-11-04T01:39:20.505Z,1016.3
2018-11-04T01:40:22.804Z,1016.3
2018-11-04T01:41:25.503Z,1016.2
2018-11-04T01:42:27.512Z,1016.3
2018-11-04T01:43:29.521Z,1016.2
2018-11-04T01:44:31.541Z,1016.3
2018-11-04T01:45:33.546Z,1016.2
2018-11-04T01:46:35.571Z,1016.2
2018-11-04T01:47:37.589Z,1016.2
2018-11-04T01:48:39.611Z,1016.2
2018-11-04T01:49:41.904Z,1016.1
2018-11-04T01:50:43.932Z,1016.2
2018-11-04T01:51:46.231Z,1016.1
2018-11-04T01:52:48.244Z,1016.1
2018-11-04T01:53:50.554Z,1016.1
2018-11-04T01:54:52.563Z,1016.1
2018-11-04T01:55:54.579Z,1016
2018-11-04T01:56:56.882Z,1016.1
2018-11-04T01:57:58.905Z,1016
2018-11-04T01:59:00.920Z,1016
2018-11-04T02:00:03.329Z,1016
2018-11-04T02:01:05.735Z,1015.9
2018-11-04T02:02:07.738Z,1016
2018-11-04T02:03:09.767Z,1015.9
2018-11-04T02:04:11.787Z,1016
2018-11-04T02:05:14.088Z,1015.9
2018-11-04T02:06:16.102Z,1016
2018-11-04T02:07:18.120Z,1015.9
2018-11-04T02:08:20.130Z,1015.9
2018-11-04T02:09:22.152Z,1015.8
2018-11-04T02:10:24.171Z,1015.8
2018-11-04T02:11:26.464Z,1015.8
2018-11-04T02:12:28.480Z,1015.8
2018-11-04T02:13:30.501Z,1015.8
2018-11-04T02:14:32.513Z,1015.8
2018-11-04T02:15:34.534Z,1015.8
2018-11-04T02:16:36.845Z,1015.8
2018-11-04T02:17:38.857Z,1015.8
2018-11-04T02:18:41.269Z,1015.8
2018-11-04T02:19:43.280Z,1015.7
2018-11-04T02:20:45.294Z,1015.7
2018-11-04T02:21:47.301Z,1015.7
2018-11-04T02:22:49.321Z,1015.7
2018-11-04T02:23:51.339Z,1015.7
2018-11-04T02:24:53.643Z,1015.7
2018-11-04T02:25:55.667Z,1015.7
2018-11-04T02:26:57.673Z,1015.7
2018-11-04T02:27:59.702Z,1015.7
2018-11-04T02:29:01.718Z,1015.6
2018-11-04T02:30:03.740Z,1015.6
2018-11-04T02:31:05.753Z,1015.6
2018-11-04T02:32:08.051Z,1015.6
2018-11-04T02:33:10.063Z,1015.5
2018-11-04T02:34:12.077Z,1015.6
2018-11-04T02:35:14.107Z,1015.5
2018-11-04T02:36:16.401Z,1015.5
2018-11-04T02:37:18.807Z,1015.5
2018-11-04T02:38:21.508Z,1015.5
2018-11-04T02:39:24.192Z,1015.5
2018-11-04T02:40:26.489Z,1015.5
2018-11-04T02:41:28.507Z,1015.5
2018-11-04T02:42:30.527Z,1015.5
2018-11-04T02:43:32.546Z,1015.4
2018-11-04T02:44:34.552Z,1015.4
2018-11-04T02:45:36.572Z,1015.4
2018-11-04T02:46:38.988Z,1015.4
2018-11-04T02:47:40.999Z,1015.4
2018-11-04T02:48:43.016Z,1015.4
2018-11-04T02:49:45.039Z,1015.4
2018-11-04T02:50:47.048Z,1015.3
2018-11-04T02:51:49.767Z,1015.3
2018-11-04T02:52:52.455Z,1015.4
2018-11-04T02:53:54.470Z,1015.3
2018-11-04T02:54:56.866Z,1015.3
2018-11-04T02:55:58.892Z,1015.3
2018-11-04T02:57:00.899Z,1015.3
2018-11-04T02:58:02.917Z,1015.2
2018-11-04T02:59:04.937Z,1015.2
2018-11-04T03:00:07.618Z,1015.2
2018-11-04T03:01:09.654Z,1015.2
2018-11-04T03:02:11.762Z,1015.2
2018-11-04T03:03:14.306Z,1015.2
2018-11-04T03:04:16.611Z,1015.2
2018-11-04T03:05:18.921Z,1015.2
2018-11-04T03:06:21.219Z,1015.2
2018-11-04T03:07:23.230Z,1015.1
2018-11-04T03:08:25.838Z,1015.1
2018-11-04T03:09:28.230Z,1015.1
2018-11-04T03:10:30.533Z,1015.1
2018-11-04T03:11:32.849Z,1015.1
2018-11-04T03:12:34.861Z,1015.1
2018-11-04T03:13:37.169Z,1015.1
2018-11-04T03:14:39.581Z,1015.1
2018-11-04T03:15:42.263Z,1015.1
2018-11-04T03:16:44.276Z,1015.1
2018-11-04T03:17:46.609Z,1015.1
2018-11-04T03:18:49.202Z,1015.1
2018-11-04T03:19:51.221Z,1015.1
2018-11-04T03:20:53.233Z,1015
2018-11-04T03:21:55.558Z,1015.1
2018-11-04T03:22:57.581Z,1015
2018-11-04T03:23:59.594Z,1015
2018-11-04T03:25:01.900Z,1015
2018-11-04T03:26:03.910Z,1015
2018-11-04T03:27:05.926Z,1015
2018-11-04T03:28:08.322Z,1015
2018-11-04T03:29:10.730Z,1015.1
2018-11-04T03:30:12.745Z,1015
2018-11-04T03:31:15.339Z,1015
2018-11-04T03:32:17.749Z,1015
2018-11-04T03:33:20.035Z,1015
2018-11-04T03:34:22.359Z,1015
2018-11-04T03:35:24.765Z,1014.9
2018-11-04T03:36:26.780Z,1014.9
2018-11-04T03:37:28.797Z,1014.9
2018-11-04T03:38:31.106Z,1014.9
2018-11-04T03:39:33.115Z,1014.8
2018-11-04T03:40:35.402Z,1014.9
2018-11-04T03:41:37.716Z,1014.9
2018-11-04T03:42:39.722Z,1014.8
2018-11-04T03:43:42.038Z,1014.8
2018-11-04T03:44:44.062Z,1014.8
2018-11-04T03:45:46.075Z,1014.8
2018-11-04T03:46:48.084Z,1014.8
2018-11-04T03:47:50.395Z,1014.8
2018-11-04T03:48:52.712Z,1014.8
2018-11-04T03:49:55.012Z,1014.8
2018-11-04T03:50:57.655Z,1014.8
2018-11-04T03:51:59.684Z,1014.7
2018-11-04T03:53:02.653Z,1014.6
2018-11-04T03:54:05.356Z,1014.7
2018-11-04T03:55:07.369Z,1014.7
2018-11-04T03:56:09.676Z,1014.6
2018-11-04T03:57:12.069Z,1014.6
2018-11-04T03:58:14.094Z,1014.6
2018-11-04T03:59:16.107Z,1014.6
2018-11-04T04:00:18.121Z,1014.6
2018-11-04T04:01:20.517Z,1014.5
2018-11-04T04:02:22.541Z,1014.6
2018-11-04T04:03:24.936Z,1014.6
2018-11-04T04:04:26.971Z,1014.6
2018-11-04T04:05:28.971Z,1014.5
2018-11-04T04:06:31.651Z,1014.6
2018-11-04T04:07:34.063Z,1014.5
2018-11-04T04:08:36.079Z,1014.5
2018-11-04T04:09:38.396Z,1014.5
2018-11-04T04:10:40.400Z,1014.5
2018-11-04T04:11:42.704Z,1014.5
2018-11-04T04:12:45.013Z,1014.5
2018-11-04T04:13:47.417Z,1014.5
2018-11-04T04:14:49.447Z,1014.5
2018-11-04T04:15:51.772Z,1014.5
2018-11-04T04:16:54.173Z,1014.5
2018-11-04T04:17:56.195Z,1014.4
2018-11-04T04:18:58.496Z,1014.4
2018-11-04T04:20:01.077Z,1014.4
2018-11-04T04:21:03.096Z,1014.3
2018-11-04T04:22:05.107Z,1014.3
2018-11-04T04:23:07.436Z,1014.3
2018-11-04T04:24:09.463Z,1014.3
2018-11-04T04:25:11.484Z,1014.3
2018-11-04T04:26:13.496Z,1014.3
2018-11-04T04:27:15.518Z,1014.3
2018-11-04T04:28:17.527Z,1014.3
2018-11-04T04:29:19.831Z,1014.3
2018-11-04T04:30:21.851Z,1014.2
2018-11-04T04:31:23.857Z,1014.2
2018-11-04T04:32:26.549Z,1014.2
2018-11-04T04:33:28.568Z,1014.2
2018-11-04T04:34:30.592Z,1014.2
2018-11-04T04:35:32.600Z,1014.2
2018-11-04T04:36:34.623Z,1014.2
2018-11-04T04:37:36.926Z,1014.2
2018-11-04T04:38:38.935Z,1014.2
2018-11-04T04:39:40.962Z,1014.1
2018-11-04T04:40:42.965Z,1014.1
2018-11-04T04:41:44.978Z,1014.1
2018-11-04T04:42:46.988Z,1014.1
2018-11-04T04:43:49.782Z,1014.1
2018-11-04T04:44:51.792Z,1014.1
2018-11-04T04:45:53.816Z,1014.1
2018-11-04T04:46:56.224Z,1014.1
2018-11-04T04:47:58.612Z,1014.1
2018-11-04T04:49:00.919Z,1014.1
2018-11-04T04:50:03.227Z,1014.1
2018-11-04T04:51:05.802Z,1014
2018-11-04T04:52:08.105Z,1014
2018-11-04T04:53:10.123Z,1014
2018-11-04T04:54:12.423Z,1014
2018-11-04T04:55:14.493Z,1014
2018-11-04T04:56:16.755Z,1014
2018-11-04T04:57:19.147Z,1013.9
2018-11-04T04:58:21.165Z,1014
2018-11-04T04:59:23.190Z,1014
2018-11-04T05:00:25.200Z,1014
2018-11-04T05:01:27.219Z,1014
2018-11-04T05:02:29.522Z,1014
2018-11-04T05:03:31.533Z,1014
2018-11-04T05:04:33.560Z,1013.9
2018-11-04T05:05:35.856Z,1014
2018-11-04T05:06:37.870Z,1014
2018-11-04T05:07:39.875Z,1014
2018-11-04T05:08:41.901Z,1014
2018-11-04T05:09:44.197Z,1014
2018-11-04T05:10:46.495Z,1013.9
2018-11-04T05:11:48.520Z,1013.9
2018-11-04T05:12:50.824Z,1013.9
2018-11-04T05:13:52.829Z,1014
2018-11-04T05:14:55.159Z,1013.9
2018-11-04T05:15:57.169Z,1013.9
2018-11-04T05:16:59.884Z,1014
2018-11-04T05:18:01.896Z,1014
2018-11-04T05:19:04.299Z,1014
2018-11-04T05:20:06.319Z,1013.9
2018-11-04T05:21:08.709Z,1014
2018-11-04T05:22:10.740Z,1013.9
2018-11-04T05:23:12.757Z,1013.9
2018-11-04T05:24:14.767Z,1013.9
2018-11-04T05:25:17.173Z,1013.9
2018-11-04T05:26:19.194Z,1014
2018-11-04T05:27:21.204Z,1013.9
2018-11-04T05:28:23.232Z,1013.9
2018-11-04T05:29:25.248Z,1013.9
2018-11-04T05:30:27.249Z,1013.9
2018-11-04T05:31:29.266Z,1013.9
2018-11-04T05:32:31.962Z,1013.9
2018-11-04T05:33:33.971Z,1014
2018-11-04T05:34:35.996Z,1013.9
2018-11-04T05:35:38.013Z,1013.9
2018-11-04T05:36:40.024Z,1013.9
2018-11-04T05:37:42.053Z,1013.9
2018-11-04T05:38:44.064Z,1013.8
2018-11-04T05:39:46.081Z,1013.8
2018-11-04T05:40:48.092Z,1013.9
2018-11-04T05:41:50.502Z,1013.8
2018-11-04T05:42:52.515Z,1013.8
2018-11-04T05:43:54.533Z,1013.8
2018-11-04T05:44:56.556Z,1013.8
2018-11-04T05:45:58.562Z,1013.8
2018-11-04T05:47:00.974Z,1013.8
2018-11-04T05:48:03.279Z,1013.9
2018-11-04T05:49:05.298Z,1013.8
2018-11-04T05:50:07.694Z,1013.8
2018-11-04T05:51:10.031Z,1013.8
2018-11-04T05:52:12.053Z,1013.8
2018-11-04T05:53:14.077Z,1013.8
2018-11-04T05:54:16.081Z,1013.8
2018-11-04T05:55:18.109Z,1013.9
2018-11-04T05:56:20.532Z,1013.9
2018-11-04T05:57:22.543Z,1014
2018-11-04T05:58:24.848Z,1013.9
2018-11-04T05:59:27.560Z,1013.9
2018-11-04T06:00:29.574Z,1013.9
2018-11-04T06:01:31.600Z,1013.9
2018-11-04T06:02:33.616Z,1013.9
2018-11-04T06:03:35.624Z,1013.9
2018-11-04T06:04:37.643Z,1013.9
2018-11-04T06:05:39.663Z,1013.9
2018-11-04T06:06:41.675Z,1013.9
2018-11-04T06:07:44.476Z,1013.9
2018-11-04T06:08:46.503Z,1013.9
2018-11-04T06:09:48.516Z,1013.9
2018-11-04T06:10:50.548Z,1013.9
2018-11-04T06:11:52.845Z,1013.9
2018-11-04T06:12:54.863Z,1013.9
2018-11-04T06:13:56.877Z,1013.9
2018-11-04T06:14:58.899Z,1013.9
2018-11-04T06:16:00.912Z,1013.9
2018-11-04T06:17:02.930Z,1013.9
2018-11-04T06:18:04.951Z,1013.9
2018-11-04T06:19:06.960Z,1013.8
2018-11-04T06:20:08.987Z,1013.9
2018-11-04T06:21:11.003Z,1013.9
2018-11-04T06:22:13.718Z,1013.9
2018-11-04T06:23:15.730Z,1013.9
2018-11-04T06:24:17.759Z,1013.9
2018-11-04T06:25:20.053Z,1013.9
2018-11-04T06:26:22.070Z,1013.9
2018-11-04T06:27:24.387Z,1013.9
2018-11-04T06:28:26.404Z,1013.9
2018-11-04T06:29:28.813Z,1013.9
2018-11-04T06:30:30.824Z,1013.9
2018-11-04T06:31:32.839Z,1013.8
2018-11-04T06:32:34.862Z,1013.8
2018-11-04T06:33:36.892Z,1013.8
2018-11-04T06:34:38.943Z,1013.8
2018-11-04T06:35:41.894Z,1013.8
2018-11-04T06:36:43.902Z,1013.8
2018-11-04T06:37:45.919Z,1013.8
2018-11-04T06:38:47.942Z,1013.8
2018-11-04T06:39:49.957Z,1013.8
2018-11-04T06:40:51.987Z,1013.8
2018-11-04T06:41:54.007Z,1013.8
2018-11-04T06:42:56.321Z,1013.8
2018-11-04T06:43:58.629Z,1013.9
2018-11-04T06:45:00.641Z,1013.8
2018-11-04T06:46:02.662Z,1013.8
2018-11-04T06:47:04.679Z,1013.8
2018-11-04T06:48:06.700Z,1013.8
2018-11-04T06:49:08.709Z,1013.8
2018-11-04T06:50:11.017Z,1013.9
2018-11-04T06:51:13.039Z,1013.9
2018-11-04T06:52:15.045Z,1013.8
2018-11-04T06:53:17.456Z,1013.9
2018-11-04T06:54:19.474Z,1013.9
2018-11-04T06:55:21.495Z,1013.9
2018-11-04T06:56:23.914Z,1013.9
2018-11-04T06:57:25.934Z,1013.9
2018-11-04T06:58:27.946Z,1013.9
2018-11-04T06:59:30.245Z,1013.8
2018-11-04T07:00:32.273Z,1013.8
2018-11-04T07:01:34.281Z,1013.8
2018-11-04T07:02:36.303Z,1013.8
2018-11-04T07:03:38.325Z,1013.8
2018-11-04T07:04:40.348Z,1013.8
2018-11-04T07:05:42.365Z,1013.8
2018-11-04T07:06:44.770Z,1013.8
2018-11-04T07:07:47.070Z,1013.8
2018-11-04T07:08:49.153Z,1013.8
2018-11-04T07:09:51.525Z,1013.8
2018-11-04T07:10:53.880Z,1013.8
2018-11-04T07:11:55.896Z,1013.8
2018-11-04T07:12:58.353Z,1013.8
2018-11-04T07:14:00.651Z,1013.8
2018-11-04T07:15:03.241Z,1013.8
2018-11-04T07:16:05.268Z,1013.8
2018-11-04T07:17:07.280Z,1013.7
2018-11-04T07:18:09.304Z,1013.8
2018-11-04T07:19:11.325Z,1013.8
2018-11-04T07:20:13.354Z,1013.7
2018-11-04T07:21:15.389Z,1013.7
2018-11-04T07:22:17.692Z,1013.7
2018-11-04T07:23:19.996Z,1013.7
2018-11-04T07:24:22.288Z,1013.7
2018-11-04T07:25:24.383Z,1013.7
2018-11-04T07:26:26.326Z,1013.7
2018-11-04T07:27:28.349Z,1013.7
2018-11-04T07:28:30.368Z,1013.7
2018-11-04T07:29:32.391Z,1013.7
2018-11-04T07:30:34.401Z,1013.7
2018-11-04T07:31:36.423Z,1013.7
2018-11-04T07:32:39.046Z,1013.7
2018-11-04T07:33:41.766Z,1013.7
2018-11-04T07:34:43.795Z,1013.6
2018-11-04T07:35:45.818Z,1013.7
2018-11-04T07:36:47.832Z,1013.7
2018-11-04T07:37:49.854Z,1013.7
2018-11-04T07:38:52.157Z,1013.7
2018-11-04T07:39:54.182Z,1013.6
2018-11-04T07:40:56.196Z,1013.7
2018-11-04T07:41:58.215Z,1013.7
2018-11-04T07:43:00.227Z,1013.7
2018-11-04T07:44:02.295Z,1013.7
2018-11-04T07:45:04.652Z,1013.7
2018-11-04T07:46:06.673Z,1013.8
2018-11-04T07:47:08.685Z,1013.8
2018-11-04T07:48:10.701Z,1013.7
2018-11-04T07:49:12.723Z,1013.8
2018-11-04T07:50:14.736Z,1013.8
2018-11-04T07:51:16.779Z,1013.7
2018-11-04T07:52:19.475Z,1013.7
2018-11-04T07:53:21.495Z,1013.7
2018-11-04T07:54:23.510Z,1013.7
2018-11-04T07:55:25.535Z,1013.7
2018-11-04T07:56:27.838Z,1013.7
2018-11-04T07:57:29.852Z,1013.7
2018-11-04T07:58:31.882Z,1013.7
2018-11-04T07:59:33.891Z,1013.6
2018-11-04T08:00:35.908Z,1013.7
2018-11-04T08:01:37.923Z,1013.7
2018-11-04T08:02:39.947Z,1013.6
2018-11-04T08:03:41.962Z,1013.6
2018-11-04T08:04:44.278Z,1013.5
2018-11-04T08:05:46.303Z,1013.5
2018-11-04T08:06:48.311Z,1013.5
2018-11-04T08:07:50.338Z,1013.5
2018-11-04T08:08:52.741Z,1013.5
2018-11-04T08:09:54.749Z,1013.5
2018-11-04T08:10:56.773Z,1013.5
2018-11-04T08:11:58.800Z,1013.5
2018-11-04T08:13:01.096Z,1013.5
2018-11-04T08:14:03.121Z,1013.4
2018-11-04T08:15:05.143Z,1013.4
2018-11-04T08:16:07.434Z,1013.4
2018-11-04T08:17:09.454Z,1013.5
2018-11-04T08:18:11.481Z,1013.4
2018-11-04T08:19:13.878Z,1013.4
2018-11-04T08:20:15.906Z,1013.4
2018-11-04T08:21:17.959Z,1013.3
2018-11-04T08:22:19.957Z,1013.3
2018-11-04T08:23:21.970Z,1013.3
2018-11-04T08:24:24.378Z,1013.3
2018-11-04T08:25:26.401Z,1013.3
2018-11-04T08:26:28.712Z,1013.3
2018-11-04T08:27:30.766Z,1013.3
2018-11-04T08:28:33.602Z,1013.3
2018-11-04T08:29:35.620Z,1013.3
2018-11-04T08:30:37.632Z,1013.3
2018-11-04T08:31:39.663Z,1013.3
2018-11-04T08:32:41.956Z,1013.3
2018-11-04T08:33:44.260Z,1013.3
2018-11-04T08:34:46.290Z,1013.3
2018-11-04T08:35:48.298Z,1013.3
2018-11-04T08:36:50.313Z,1013.3
2018-11-04T08:37:52.339Z,1013.3
2018-11-04T08:38:54.365Z,1013.2
2018-11-04T08:39:56.481Z,1013.3
2018-11-04T08:40:58.889Z,1013.2
2018-11-04T08:42:01.191Z,1013.2
2018-11-04T08:43:03.587Z,1013.3
2018-11-04T08:44:05.605Z,1013.2
2018-11-04T08:45:07.630Z,1013.2
2018-11-04T08:46:09.923Z,1013.2
2018-11-04T08:47:11.951Z,1013.2
2018-11-04T08:48:13.971Z,1013.2
2018-11-04T08:49:16.266Z,1013.2
2018-11-04T08:50:18.286Z,1013.2
2018-11-04T08:51:20.309Z,1013.2
2018-11-04T08:52:22.332Z,1013.1
2018-11-04T08:53:24.349Z,1013.2
2018-11-04T08:54:26.372Z,1013.1
2018-11-04T08:55:28.391Z,1013.1
2018-11-04T08:56:30.415Z,1013.1
2018-11-04T08:57:32.427Z,1013.1
2018-11-04T08:58:34.732Z,1013
2018-11-04T08:59:37.025Z,1013
2018-11-04T09:00:39.047Z,1013
2018-11-04T09:01:41.073Z,1013.1
2018-11-04T09:02:43.092Z,1013
2018-11-04T09:03:45.104Z,1012.9
2018-11-04T09:04:47.135Z,1013
2018-11-04T09:05:49.145Z,1013
2018-11-04T09:06:51.168Z,1013
2018-11-04T09:07:53.178Z,1012.9
2018-11-04T09:08:55.202Z,1012.9
2018-11-04T09:09:57.214Z,1012.9
2018-11-04T09:10:59.521Z,1012.9
2018-11-04T09:12:01.544Z,1012.9
2018-11-04T09:13:03.945Z,1012.9
2018-11-04T09:14:06.347Z,1012.9
2018-11-04T09:15:08.745Z,1012.8
2018-11-04T09:16:10.761Z,1012.8
2018-11-04T09:17:12.780Z,1012.8
2018-11-04T09:18:14.805Z,1012.8
2018-11-04T09:19:16.818Z,1012.8
2018-11-04T09:20:18.844Z,1012.8
2018-11-04T09:21:21.144Z,1012.8
2018-11-04T09:22:23.769Z,1012.8
2018-11-04T09:23:26.643Z,1012.8
2018-11-04T09:24:28.619Z,1012.8
2018-11-04T09:25:30.635Z,1012.8
2018-11-04T09:26:32.660Z,1012.8
2018-11-04T09:27:34.687Z,1012.8
2018-11-04T09:28:36.702Z,1012.8
2018-11-04T09:29:38.741Z,1012.8
2018-11-04T09:30:40.752Z,1012.8
2018-11-04T09:31:43.369Z,1012.9
2018-11-04T09:32:45.382Z,1012.8
2018-11-04T09:33:48.093Z,1012.8
2018-11-04T09:34:50.911Z,1012.8
2018-11-04T09:35:54.616Z,1012.8
2018-11-04T09:36:57.049Z,1012.8
2018-11-04T09:37:59.445Z,1012.8
2018-11-04T09:39:01.474Z,1012.7
2018-11-04T09:40:03.493Z,1012.8
2018-11-04T09:41:05.521Z,1012.8
2018-11-04T09:42:07.535Z,1012.7
2018-11-04T09:43:09.846Z,1012.7
2018-11-04T09:44:11.864Z,1012.8
2018-11-04T09:45:14.183Z,1012.8
2018-11-04T09:46:16.214Z,1012.8
2018-11-04T09:47:18.221Z,1012.8
2018-11-04T09:48:20.242Z,1012.7
2018-11-04T09:49:22.267Z,1012.8
2018-11-04T09:50:24.286Z,1012.8
2018-11-04T09:51:26.302Z,1012.7
2018-11-04T09:52:28.327Z,1012.7
2018-11-04T09:53:30.345Z,1012.8
2018-11-04T09:54:32.363Z,1012.7
2018-11-04T09:55:34.391Z,1012.7
2018-11-04T09:56:36.494Z,1012.7
2018-11-04T09:57:39.475Z,1012.7
2018-11-04T09:58:41.495Z,1012.7
2018-11-04T09:59:43.915Z,1012.7
2018-11-04T10:00:46.230Z,1012.6
2018-11-04T10:01:48.255Z,1012.6
2018-11-04T10:02:50.263Z,1012.6
2018-11-04T10:03:52.570Z,1012.6
2018-11-04T10:04:54.593Z,1012.6
2018-11-04T10:05:56.620Z,1012.5
2018-11-04T10:06:58.685Z,1012.5
2018-11-04T10:08:00.661Z,1012.6
2018-11-04T10:09:02.685Z,1012.5
2018-11-04T10:10:04.704Z,1012.5
2018-11-04T10:11:06.742Z,1012.5
2018-11-04T10:12:08.754Z,1012.5
2018-11-04T10:13:10.823Z,1012.5
2018-11-04T10:14:12.788Z,1012.5
2018-11-04T10:15:14.811Z,1012.5
2018-11-04T10:16:16.944Z,1012.5
2018-11-04T10:17:19.375Z,1012.5
2018-11-04T10:18:21.397Z,1012.5
2018-11-04T10:19:23.701Z,1012.5
2018-11-04T10:20:25.859Z,1012.5
2018-11-04T10:21:27.469Z,1012.5
2018-11-04T10:22:29.499Z,1012.5
2018-11-04T10:23:31.530Z,1012.5
2018-11-04T10:24:33.840Z,1012.4
2018-11-04T10:25:35.863Z,1012.4
2018-11-04T10:26:37.880Z,1012.4
2018-11-04T10:27:40.185Z,1012.3
2018-11-04T10:28:42.534Z,1012.3
2018-11-04T10:29:44.559Z,1012.3
2018-11-04T10:30:46.573Z,1012.3
2018-11-04T10:31:48.602Z,1012.3
2018-11-04T10:32:50.909Z,1012.3
2018-11-04T10:33:53.313Z,1012.3
2018-11-04T10:34:55.343Z,1012.3
2018-11-04T10:35:57.677Z,1012.3
2018-11-04T10:36:59.714Z,1012.2
2018-11-04T10:38:02.823Z,1012.2
2018-11-04T10:39:05.241Z,1012.2
2018-11-04T10:40:07.265Z,1012.3
2018-11-04T10:41:09.708Z,1012.2
2018-11-04T10:42:11.800Z,1012.2
2018-11-04T10:43:13.749Z,1012.2
2018-11-04T10:44:15.781Z,1012.2
2018-11-04T10:45:17.794Z,1012.2
2018-11-04T10:46:19.819Z,1012.2
2018-11-04T10:47:21.837Z,1012.2
2018-11-04T10:48:24.947Z,1012.1
2018-11-04T10:49:27.086Z,1012.1
2018-11-04T10:50:29.557Z,1012
2018-11-04T10:51:31.580Z,1012
2018-11-04T10:52:33.596Z,1012
2018-11-04T10:53:35.623Z,1012.1
2018-11-04T10:54:37.643Z,1012
2018-11-04T10:55:39.717Z,1012
2018-11-04T10:56:41.706Z,1012
2018-11-04T10:57:44.010Z,1012
2018-11-04T10:58:46.063Z,1012
2018-11-04T10:59:48.519Z,1012
2018-11-04T11:00:50.932Z,1012
2018-11-04T11:01:54.327Z,1012
2018-11-04T11:02:57.128Z,1012
2018-11-04T11:04:01.237Z,1012
2018-11-04T11:05:03.270Z,1011.9
2018-11-04T11:06:05.668Z,1011.9
2018-11-04T11:07:08.374Z,1011.9
2018-11-04T11:08:10.402Z,1011.9
2018-11-04T11:09:12.413Z,1011.9
2018-11-04T11:10:14.439Z,1011.9
2018-11-04T11:11:16.459Z,1011.9
2018-11-04T11:12:18.774Z,1011.9
2018-11-04T11:13:20.787Z,1011.8
2018-11-04T11:14:22.813Z,1011.9
2018-11-04T11:15:24.835Z,1011.8
2018-11-04T11:16:27.251Z,1011.8
2018-11-04T11:17:29.571Z,1011.8
2018-11-04T11:18:31.584Z,1011.8
2018-11-04T11:19:33.608Z,1011.8
2018-11-04T11:20:35.627Z,1011.7
2018-11-04T11:21:37.654Z,1011.7
2018-11-04T11:22:39.749Z,1011.7
2018-11-04T11:23:41.699Z,1011.7
2018-11-04T11:24:43.724Z,1011.7
2018-11-04T11:25:46.119Z,1011.7
2018-11-04T11:26:48.539Z,1011.8
2018-11-04T11:27:50.567Z,1011.7
2018-11-04T11:28:52.974Z,1011.8
2018-11-04T11:29:55.037Z,1011.8
2018-11-04T11:30:57.022Z,1011.8
2018-11-04T11:31:59.046Z,1011.8
2018-11-04T11:33:01.063Z,1011.8
2018-11-04T11:34:03.750Z,1011.8
2018-11-04T11:35:05.784Z,1011.8
2018-11-04T11:36:07.811Z,1011.7
2018-11-04T11:37:09.830Z,1011.7
2018-11-04T11:38:12.315Z,1011.7
2018-11-04T11:39:14.332Z,1011.7
2018-11-04T11:40:16.350Z,1011.6
2018-11-04T11:41:18.380Z,1011.6
2018-11-04T11:42:20.392Z,1011.6
2018-11-04T11:43:22.420Z,1011.6
2018-11-04T11:44:24.444Z,1011.6
2018-11-04T11:45:26.470Z,1011.6
2018-11-04T11:46:28.486Z,1011.5
2018-11-04T11:47:30.516Z,1011.5
2018-11-04T11:48:32.540Z,1011.5
2018-11-04T11:49:34.557Z,1011.5
2018-11-04T11:50:36.592Z,1011.6
2018-11-04T11:51:39.285Z,1011.5
2018-11-04T11:52:41.460Z,1011.4
2018-11-04T11:53:43.331Z,1011.4
2018-11-04T11:54:45.362Z,1011.4
2018-11-04T11:55:47.385Z,1011.4
2018-11-04T11:56:49.419Z,1011.4
2018-11-04T11:57:51.440Z,1011.4
2018-11-04T11:58:53.455Z,1011.3
2018-11-04T11:59:55.769Z,1011.3
2018-11-04T12:00:58.357Z,1011.3
2018-11-04T12:02:00.392Z,1011.3
2018-11-04T12:03:02.709Z,1011.3
2018-11-04T12:04:04.736Z,1011.3
2018-11-04T12:05:06.755Z,1011.2
2018-11-04T12:06:09.166Z,1011.2
2018-11-04T12:07:11.189Z,1011.2
2018-11-04T12:08:13.625Z,1011.2
2018-11-04T12:09:15.936Z,1011.2
2018-11-04T12:10:18.251Z,1011.2
2018-11-04T12:11:20.276Z,1011.2
2018-11-04T12:12:22.304Z,1011.1
2018-11-04T12:13:24.330Z,1011.1
2018-11-04T12:14:26.346Z,1011.1
2018-11-04T12:15:28.383Z,1011
2018-11-04T12:16:30.399Z,1011
2018-11-04T12:17:32.452Z,1011
2018-11-04T12:18:34.446Z,1011
2018-11-04T12:19:36.473Z,1011
2018-11-04T12:20:38.879Z,1011
2018-11-04T12:21:40.902Z,1011
2018-11-04T12:22:42.932Z,1011
2018-11-04T12:23:45.362Z,1011.1
2018-11-04T12:24:48.251Z,1011.1
2018-11-04T12:25:50.559Z,1011.1
2018-11-04T12:26:52.588Z,1011
2018-11-04T12:27:54.603Z,1011
2018-11-04T12:28:56.938Z,1011
2018-11-04T12:29:59.348Z,1011
2018-11-04T12:31:01.388Z,1010.9
2018-11-04T12:32:03.718Z,1011
2018-11-04T12:33:05.741Z,1010.9
2018-11-04T12:34:07.764Z,1010.9
2018-11-04T12:35:09.811Z,1010.8
2018-11-04T12:36:12.185Z,1010.8
2018-11-04T12:37:14.202Z,1010.8
2018-11-04T12:38:16.523Z,1010.7
2018-11-04T12:39:18.541Z,1010.7
2018-11-04T12:40:20.564Z,1010.7
2018-11-04T12:41:22.628Z,1010.7
2018-11-04T12:42:24.626Z,1010.6
2018-11-04T12:43:26.646Z,1010.6
2018-11-04T12:44:28.682Z,1010.6
2018-11-04T12:45:31.038Z,1010.6
2018-11-04T12:46:33.024Z,1010.6
2018-11-04T12:47:35.042Z,1010.6
2018-11-04T12:48:37.079Z,1010.6
2018-11-04T12:49:39.482Z,1010.6
2018-11-04T12:50:41.505Z,1010.7
2018-11-04T12:51:43.822Z,1010.7
2018-11-04T12:52:46.137Z,1010.7
2018-11-04T12:53:48.157Z,1010.7
2018-11-04T12:54:50.181Z,1010.7
2018-11-04T12:55:52.213Z,1010.7
2018-11-04T12:56:54.611Z,1010.7
2018-11-04T12:57:56.652Z,1010.7
2018-11-04T12:58:59.072Z,1010.7
2018-11-04T13:00:01.101Z,1010.7
2018-11-04T13:01:03.404Z,1010.7
2018-11-04T13:02:05.511Z,1010.6